Terminal Aerodrome Forecast
Issued by NWS

Home | Current Version | Previous Version | Text Only | Print | Product List | Glossary On
Versions: 1 2 3 4 5 6 7 8 9 10 11 12
452
FTUS44 KEPZ 280524
TAFTCS
TAF
KTCS 280524Z 2806/2906 31006KT P6SM SKC
     FM281700 17007KT P6SM SKC
     FM282100 20008KT P6SM SKC
     FM290200 28007G15KT P6SM SKC=

USA.gov is the U.S. government's official web portal to all federal, state and local government web resources and services.